BYH weather

Arkansas International Airport
Blytheville, Arkansas, United States

Public forecast

Using degrees Fahrenheit for public forecast. Weather courtesy of forecast.io.

Current aviation weather report (METAR) for Arkansas International Airport

Report is more than 2 hours old.

Retrieved 2019/10/17 21:50 UTC (6 hours ago):

KBYH 172150Z 00000KT 10SM SKC 17/04 A3003 RMK LAST

Closest aviation forecast (TAF) to Arkansas International Airport

Closest forecast is Jonesboro Municipal Airport, 35.1 nm (65.0 km) WSW. Retrieved 2019-10-18 00:24 UTC (3 hours ago):

TAF KJBR 172321Z 1800/1824 VRB03KT P6SM FEW250 FM180200 00000KT P6SM SCT250 FM180600 07002KT P6SM FEW250 FM181500 12007KT P6SM FEW250